Time;durP1;ratioP1;P1;durP2;ratioP2;P2;SDS_P1;SDS_P2;PMS_P1;PMS_P2;Temp;Humidity;BMP_temperature;BMP_pressure;BME280_temperature;BME280_humidity;BME280_pressure;Samples;Min_cycle;Max_cycle;Signal;HPM_P1;HPM_P2
2023/11/02 00:01:33;;;;;;;10.77;5.00;;;307.80;2304.00;;;;;;5078946;28;20086;-76
2023/11/02 00:03:59;;;;;;;11.13;5.10;;;307.80;2304.00;;;;;;5069917;28;20470;-76
2023/11/02 00:06:33;;;;;;;11.43;4.63;;;307.70;2304.00;;;;;;5063851;28;20024;-77
2023/11/02 00:09:02;;;;;;;10.23;5.03;;;307.60;2304.00;;;;;;5080181;28;20040;-76
2023/11/02 00:11:51;;;;;;;8.25;5.05;;;307.50;2304.00;;;;;;5069978;28;20538;-76
2023/11/02 00:14:18;;;;;;;8.75;5.18;;;307.50;2304.00;;;;;;5085733;28;20052;-77
2023/11/02 00:16:44;;;;;;;8.23;5.05;;;307.40;2304.00;;;;;;5082881;28;20031;-77
2023/11/02 00:19:35;;;;;;;10.02;5.85;;;307.40;2304.00;;;;;;5069062;28;20474;-77
2023/11/02 00:22:09;;;;;;;9.45;5.10;;;307.40;2304.00;;;;;;5066473;28;20074;-76
2023/11/02 00:24:36;;;;;;;11.88;6.13;;;307.40;2304.00;;;;;;5067373;28;20024;-76
2023/11/02 00:27:02;;;;;;;11.70;5.68;;;307.60;2304.00;;;;;;5072337;28;20027;-76
2023/11/02 00:29:30;;;;;;;11.48;5.60;;;307.60;2304.00;;;;;;5081558;28;20024;-76
2023/11/02 00:31:56;;;;;;;8.57;5.65;;;307.80;2304.00;;;;;;5084334;28;20043;-76
2023/11/02 00:34:22;;;;;;;10.00;4.93;;;307.80;2304.00;;;;;;5084316;28;20434;-76
2023/11/02 00:36:47;;;;;;;11.73;5.50;;;307.90;2304.00;;;;;;5064392;28;20166;-76
2023/11/02 00:39:13;;;;;;;8.40;4.97;;;308.00;2304.00;;;;;;5086675;28;20055;-75
2023/11/02 00:41:39;;;;;;;7.38;4.22;;;307.90;2304.00;;;;;;5067631;28;20028;-76
2023/11/02 00:44:06;;;;;;;8.00;4.57;;;307.80;2304.00;;;;;;5085632;28;20174;-76
2023/11/02 00:46:35;;;;;;;12.23;4.93;;;307.50;2304.00;;;;;;5067717;28;20028;-76
2023/11/02 00:49:02;;;;;;;9.52;4.47;;;307.80;2304.00;;;;;;5056272;28;20036;-75
2023/11/02 00:51:30;;;;;;;9.63;4.63;;;307.70;2304.00;;;;;;5065625;28;20474;-76
2023/11/02 00:53:58;;;;;;;7.57;4.28;;;307.90;2304.00;;;;;;5076597;28;20079;-76
2023/11/02 00:56:29;;;;;;;10.57;4.82;;;308.00;2304.00;;;;;;5083385;28;20473;-76
2023/11/02 00:58:55;;;;;;;8.52;4.15;;;308.00;2304.00;;;;;;5058331;28;20035;-76
2023/11/02 01:01:26;;;;;;;7.30;4.03;;;308.00;2304.00;;;;;;5058691;28;20406;-76
2023/11/02 01:03:55;;;;;;;7.50;4.30;;;308.00;2304.00;;;;;;5079238;28;20035;-76
2023/11/02 01:06:26;;;;;;;8.93;3.88;;;307.80;2304.00;;;;;;5060300;28;20021;-76
2023/11/02 01:08:54;;;;;;;12.00;4.88;;;307.80;2304.00;;;;;;5070446;28;20462;-76
2023/11/02 01:11:23;;;;;;;7.88;4.05;;;307.80;2304.00;;;;;;5068747;28;20032;-76
2023/11/02 01:13:49;;;;;;;7.28;4.28;;;307.90;2304.00;;;;;;5070055;28;20051;-76
2023/11/02 01:16:16;;;;;;;9.52;3.67;;;308.10;2304.00;;;;;;5065114;28;20123;-76
2023/11/02 01:18:46;;;;;;;6.68;4.20;;;308.00;2304.00;;;;;;5077925;28;20023;-76
2023/11/02 01:21:15;;;;;;;8.10;3.83;;;307.90;2304.00;;;;;;5075960;28;20055;-76
2023/11/02 01:23:41;;;;;;;8.52;4.43;;;307.90;2304.00;;;;;;5066549;28;20028;-77
2023/11/02 01:26:51;;;;;;;7.85;4.10;;;308.00;2304.00;;;;;;5085259;28;20584;-76
2023/11/02 01:29:17;;;;;;;6.55;3.90;;;307.90;2304.00;;;;;;5055010;28;20493;-76
2023/11/02 01:31:43;;;;;;;7.97;3.40;;;307.80;2304.00;;;;;;5073190;28;20028;-77
2023/11/02 01:34:20;;;;;;;9.48;3.90;;;307.80;2304.00;;;;;;5069975;28;20040;-77
2023/11/02 01:36:47;;;;;;;6.95;3.78;;;307.80;2304.00;;;;;;5055065;28;20051;-75
2023/11/02 01:39:15;;;;;;;7.00;3.72;;;307.80;2304.00;;;;;;5073257;28;20018;-76
2023/11/02 01:42:22;;;;;;;7.43;4.00;;;307.90;2304.00;;;;;;5054800;28;20040;-76
2023/11/02 01:45:02;;;;;;;6.32;3.67;;;308.10;2304.00;;;;;;5060662;28;20079;-76
2023/11/02 01:47:31;;;;;;;6.82;3.75;;;332.80;2329.60;;;;;;5055004;28;20024;-76
2023/11/02 01:50:14;;;;;;;6.65;3.78;;;308.10;2304.00;;;;;;5054972;28;20556;-76
2023/11/02 01:52:54;;;;;;;7.47;4.05;;;308.10;2304.00;;;;;;5072715;28;20036;-77
2023/11/02 01:55:51;;;;;;;5.88;3.72;;;308.10;2304.00;;;;;;5072831;28;20028;-77
2023/11/02 01:58:35;;;;;;;6.47;4.00;;;308.00;2304.00;;;;;;5054839;28;20017;-76
2023/11/02 02:01:09;;;;;;;8.32;4.13;;;307.80;2304.00;;;;;;5072856;28;20506;-76
2023/11/02 02:03:49;;;;;;;9.10;3.90;;;307.90;2304.00;;;;;;5071482;28;20103;-77
2023/11/02 02:06:23;;;;;;;7.97;3.85;;;307.90;2304.00;;;;;;5075620;28;20031;-76
2023/11/02 02:09:17;;;;;;;6.90;3.63;;;308.00;2304.00;;;;;;5058849;28;20107;-76
2023/11/02 02:11:50;;;;;;;5.60;3.20;;;308.10;2304.00;;;;;;5075387;28;20478;-76
2023/11/02 02:14:40;;;;;;;6.60;4.03;;;332.80;2329.60;;;;;;5076328;28;20131;-76
2023/11/02 02:17:36;;;;;;;6.55;3.42;;;332.80;2329.60;;;;;;5076739;28;20021;-76
2023/11/02 02:20:09;;;;;;;6.82;3.58;;;308.00;2304.00;;;;;;5058679;28;20044;-77
2023/11/02 02:22:50;;;;;;;7.60;3.72;;;307.90;2304.00;;;;;;5075266;28;20111;-76
2023/11/02 02:25:16;;;;;;;6.25;3.30;;;307.90;2304.00;;;;;;5074650;28;20040;-76
2023/11/02 02:27:48;;;;;;;4.85;3.13;;;307.80;2304.00;;;;;;5076539;28;20024;-76
2023/11/02 02:30:54;;;;;;;6.88;3.83;;;307.80;2304.00;;;;;;5058648;28;20119;-76
2023/11/02 02:33:29;;;;;;;8.45;3.45;;;307.70;2304.00;;;;;;5075068;28;20036;-77
2023/11/02 02:36:11;;;;;;;6.00;3.63;;;307.70;2304.00;;;;;;5076366;28;20027;-77
2023/11/02 02:38:45;;;;;;;6.80;4.60;;;307.80;2304.00;;;;;;5058355;28;20036;-76
2023/11/02 02:41:15;;;;;;;6.95;4.82;;;308.00;2304.00;;;;;;5057890;28;20028;-76
2023/11/02 02:43:42;;;;;;;7.90;4.30;;;308.10;2304.00;;;;;;5075838;28;20071;-76
2023/11/02 02:46:10;;;;;;;6.78;3.97;;;308.10;2304.00;;;;;;5076252;28;20060;-76
2023/11/02 02:48:37;;;;;;;6.70;3.60;;;308.10;2304.00;;;;;;5075869;28;20033;-76
2023/11/02 02:51:04;;;;;;;7.22;4.15;;;332.80;2329.60;;;;;;5110412;28;20015;-76
2023/11/02 02:53:32;;;;;;;7.63;3.95;;;332.90;2329.60;;;;;;5087728;28;20077;-77
2023/11/02 02:56:08;;;;;;;7.50;4.50;;;332.90;2329.60;;;;;;5081738;28;20020;-77
2023/11/02 02:58:44;;;;;;;;;;;333.00;2329.60;;;;;;5103931;28;20027;-76
2023/11/02 03:01:14;;;;;;;7.05;3.90;;;332.90;2329.60;;;;;;5105837;27;19908;-77
2023/11/02 03:03:44;;;;;;;7.18;3.90;;;332.90;2329.60;;;;;;5116291;28;20021;-77
2023/11/02 03:06:10;;;;;;;8.30;3.90;;;333.00;2329.60;;;;;;5115207;28;20112;-76
2023/11/02 03:08:40;;;;;;;8.30;4.38;;;332.90;2329.60;;;;;;5114340;28;20426;-77
2023/11/02 03:11:09;;;;;;;7.35;5.13;;;332.90;2329.60;;;;;;5104976;28;20590;-77
2023/11/02 03:13:42;;;;;;;9.68;5.00;;;332.80;2329.60;;;;;;5112755;28;20051;-76
2023/11/02 03:16:11;;;;;;;7.38;4.85;;;308.10;2304.00;;;;;;5104439;28;20024;-77
2023/11/02 03:18:39;;;;;;;7.95;5.25;;;308.00;2304.00;;;;;;5101905;28;20103;-77
2023/11/02 03:21:05;;;;;;;10.07;5.65;;;308.00;2304.00;;;;;;5114869;28;20027;-77
2023/11/02 03:23:43;;;;;;;7.25;4.60;;;308.00;2304.00;;;;;;5114775;28;20024;-77
2023/11/02 03:26:22;;;;;;;10.30;6.55;;;308.10;2304.00;;;;;;5114385;28;20864;-77
2023/11/02 03:29:12;;;;;;;9.02;4.65;;;308.10;2304.00;;;;;;5107357;28;20047;-77
2023/11/02 03:32:02;;;;;;;8.93;4.85;;;308.10;2304.00;;;;;;5098947;28;20047;-76
2023/11/02 03:34:59;;;;;;;7.05;4.30;;;308.00;2304.00;;;;;;5115592;28;20028;-77
2023/11/02 03:37:37;;;;;;;8.38;5.15;;;308.00;2304.00;;;;;;5102816;28;20035;-77
2023/11/02 03:40:27;;;;;;;9.95;5.28;;;308.00;2304.00;;;;;;5094070;28;20024;-76
2023/11/02 03:43:12;;;;;;;7.55;4.95;;;307.90;2304.00;;;;;;5109663;28;20051;-76
2023/11/02 03:45:49;;;;;;;10.88;5.57;;;308.00;2304.00;;;;;;5103353;28;20490;-77
2023/11/02 03:48:30;;;;;;;9.50;5.75;;;308.10;2304.00;;;;;;5089449;28;20038;-77
2023/11/02 03:50:56;;;;;;;11.20;5.70;;;308.00;2304.00;;;;;;5114119;28;20026;-76
2023/11/02 03:53:43;;;;;;;9.00;6.25;;;307.80;2304.00;;;;;;5115500;28;20036;-76
2023/11/02 03:56:44;;;;;;;;;;;307.80;2304.00;;;;;;5110303;28;20020;-76
2023/11/02 03:59:20;;;;;;;11.02;6.97;;;307.60;2304.00;;;;;;5052192;28;19905;-77
2023/11/02 04:02:21;;;;;;;18.40;8.50;;;307.60;2304.00;;;;;;5052875;28;20044;-77
2023/11/02 04:04:56;;;;;;;16.00;9.35;;;307.60;2304.00;;;;;;5012626;28;20482;-76
2023/11/02 04:07:34;;;;;;;11.05;8.05;;;307.70;2304.00;;;;;;4996076;28;20034;-76
2023/11/02 04:10:08;;;;;;;11.85;8.63;;;307.80;2304.00;;;;;;4996162;28;20056;-77
2023/11/02 04:12:42;;;;;;;11.45;7.30;;;307.80;2304.00;;;;;;5012401;28;20034;-76
2023/11/02 04:15:11;;;;;;;12.32;8.05;;;307.90;2304.00;;;;;;4995918;28;20122;-76
2023/11/02 04:17:37;;;;;;;9.98;6.38;;;308.00;2304.00;;;;;;5012757;28;20025;-76
2023/11/02 04:20:04;;;;;;;11.93;7.22;;;308.10;2304.00;;;;;;5012472;28;20389;-77
2023/11/02 04:22:30;;;;;;;11.05;6.15;;;308.10;2304.00;;;;;;5012704;28;20022;-76
2023/11/02 04:24:56;;;;;;;11.23;6.68;;;308.10;2304.00;;;;;;4995466;28;20630;-76
2023/11/02 04:27:21;;;;;;;10.95;4.50;;;332.80;2329.60;;;;;;5012651;28;20065;-76
2023/11/02 04:29:47;;;;;;;8.60;4.20;;;332.80;2329.60;;;;;;5012546;28;20030;-76
2023/11/02 04:32:13;;;;;;;10.10;3.33;;;332.90;2329.60;;;;;;4993386;28;20049;-76
2023/11/02 04:34:40;;;;;;;8.00;3.10;;;332.80;2329.60;;;;;;5007059;28;20034;-76
2023/11/02 04:37:13;;;;;;;5.32;3.10;;;332.90;2329.60;;;;;;5012145;28;20357;-77
2023/11/02 04:39:38;;;;;;;8.80;3.00;;;332.90;2329.60;;;;;;5084518;28;20032;-76
2023/11/02 04:42:04;;;;;;;7.22;3.40;;;332.90;2329.60;;;;;;5103405;28;20511;-76
2023/11/02 04:44:31;;;;;;;5.95;3.25;;;332.90;2329.60;;;;;;5114088;28;20031;-76
2023/11/02 04:46:56;;;;;;;7.40;2.83;;;332.90;2329.60;;;;;;5104326;28;20454;-76
2023/11/02 04:49:22;;;;;;;8.75;3.67;;;332.90;2329.60;;;;;;5108600;28;20119;-76
2023/11/02 04:52:02;;;;;;;7.10;3.28;;;332.90;2329.60;;;;;;5112515;28;20066;-76
2023/11/02 04:54:29;;;;;;;6.05;3.28;;;333.00;2329.60;;;;;;5098963;28;20035;-76
2023/11/02 04:56:56;;;;;;;5.95;2.83;;;332.90;2329.60;;;;;;5100973;28;20023;-76
2023/11/02 04:59:22;;;;;;;7.47;3.30;;;332.90;2329.60;;;;;;5097486;28;20035;-76
2023/11/02 05:01:48;;;;;;;8.65;3.13;;;332.90;2329.60;;;;;;5112890;28;20115;-76
2023/11/02 05:04:15;;;;;;;5.13;2.65;;;307.90;2304.00;;;;;;5093715;28;20020;-76
2023/11/02 05:06:41;;;;;;;8.45;2.65;;;332.80;2329.60;;;;;;5097887;28;20470;-75
2023/11/02 05:09:07;;;;;;;5.63;2.58;;;308.00;2304.00;;;;;;5093570;28;20128;-75
2023/11/02 05:11:33;;;;;;;9.88;3.50;;;308.10;2304.00;;;;;;5105510;28;20481;-76
2023/11/02 05:13:59;;;;;;;6.45;3.25;;;308.10;2304.00;;;;;;5108360;28;20043;-76
2023/11/02 05:16:24;;;;;;;6.07;3.15;;;308.10;2304.00;;;;;;5093595;28;20020;-76
2023/11/02 05:18:50;;;;;;;10.13;3.80;;;308.10;2304.00;;;;;;5112229;28;20020;-77
2023/11/02 05:21:16;;;;;;;9.35;4.40;;;308.10;2304.00;;;;;;5100530;28;20439;-76
2023/11/02 05:23:42;;;;;;;7.80;3.42;;;308.10;2304.00;;;;;;5106563;28;20020;-76
2023/11/02 05:26:08;;;;;;;8.75;3.42;;;308.10;2304.00;;;;;;5083505;28;20069;-76
2023/11/02 05:28:33;;;;;;;8.00;4.57;;;308.10;2304.00;;;;;;5081841;28;20025;-76
2023/11/02 05:30:59;;;;;;;7.00;3.83;;;308.10;2304.00;;;;;;5081745;28;20052;-76
2023/11/02 05:33:26;;;;;;;9.15;3.72;;;308.10;2304.00;;;;;;5074343;28;20040;-76
2023/11/02 05:35:52;;;;;;;8.10;4.03;;;308.10;2304.00;;;;;;5076158;28;20028;-76
2023/11/02 05:38:21;;;;;;;9.10;4.18;;;308.10;2304.00;;;;;;5076013;28;20025;-77
2023/11/02 05:40:47;;;;;;;10.07;3.90;;;332.80;2329.60;;;;;;5065415;28;20027;-77
2023/11/02 05:43:13;;;;;;;7.82;4.15;;;332.80;2329.60;;;;;;5077239;28;20048;-76
2023/11/02 05:45:39;;;;;;;7.05;4.10;;;332.80;2329.60;;;;;;5084715;28;20513;-75
2023/11/02 05:48:05;;;;;;;11.05;4.15;;;332.80;2329.60;;;;;;5082134;28;20043;-75
2023/11/02 05:50:31;;;;;;;16.05;4.38;;;332.80;2329.60;;;;;;5060534;28;20520;-76
2023/11/02 05:52:57;;;;;;;10.07;3.50;;;332.90;2329.60;;;;;;5070462;28;20032;-76
2023/11/02 05:55:22;;;;;;;7.75;3.65;;;332.90;2329.60;;;;;;5084375;28;20026;-76
2023/11/02 05:57:48;;;;;;;9.18;3.97;;;332.90;2329.60;;;;;;5080330;28;20043;-75
2023/11/02 06:00:14;;;;;;;10.00;3.53;;;333.00;2329.60;;;;;;5080007;28;20078;-75
2023/11/02 06:02:41;;;;;;;6.15;3.55;;;332.90;2329.60;;;;;;5066389;28;20513;-75
2023/11/02 06:05:07;;;;;;;6.88;3.50;;;333.00;2329.60;;;;;;5080451;28;20093;-76
2023/11/02 06:07:35;;;;;;;6.00;3.60;;;333.00;2329.60;;;;;;5075666;28;20032;-76
2023/11/02 06:10:01;;;;;;;7.28;3.63;;;333.10;2329.60;;;;;;5082494;28;20028;-76
2023/11/02 06:12:28;;;;;;;5.78;3.75;;;333.10;2329.60;;;;;;5084864;28;20044;-75
2023/11/02 06:14:54;;;;;;;9.10;3.78;;;333.10;2329.60;;;;;;5083263;28;20433;-76
2023/11/02 06:17:20;;;;;;;12.73;3.72;;;333.10;2329.60;;;;;;5076869;28;20029;-75
2023/11/02 06:19:46;;;;;;;10.77;3.85;;;333.20;2329.60;;;;;;5066946;28;20032;-76
2023/11/02 06:22:14;;;;;;;6.28;3.53;;;333.20;2329.60;;;;;;5066047;28;20489;-75
2023/11/02 06:24:41;;;;;;;6.60;3.63;;;333.20;2329.60;;;;;;5067867;28;20032;-75
2023/11/02 06:27:08;;;;;;;5.80;2.63;;;333.30;2329.60;;;;;;5079359;28;20104;-76
2023/11/02 06:29:34;;;;;;;5.50;3.13;;;333.30;2329.60;;;;;;5086023;28;20035;-76
2023/11/02 06:32:00;;;;;;;7.93;3.97;;;333.30;2329.60;;;;;;5086593;28;20031;-76
2023/11/02 06:34:26;;;;;;;7.00;2.78;;;333.40;2329.60;;;;;;5067888;28;20036;-76
2023/11/02 06:36:52;;;;;;;10.32;3.20;;;333.40;2329.60;;;;;;5073627;28;20028;-77
2023/11/02 06:39:20;;;;;;;6.70;3.28;;;333.50;2329.60;;;;;;5067800;28;20040;-77
2023/11/02 06:41:49;;;;;;;7.32;3.22;;;333.50;2329.60;;;;;;5084730;28;20119;-77
2023/11/02 06:44:15;;;;;;;8.73;3.70;;;333.50;2329.60;;;;;;5079672;28;20025;-77
2023/11/02 06:46:42;;;;;;;4.65;3.03;;;333.50;2329.60;;;;;;5087281;28;20123;-76
2023/11/02 06:49:08;;;;;;;9.02;3.17;;;333.60;2329.60;;;;;;5061798;28;20040;-74
2023/11/02 06:51:35;;;;;;;8.77;3.50;;;333.40;2329.60;;;;;;5083448;28;20082;-79
2023/11/02 06:54:00;;;;;;;7.35;3.55;;;333.70;2329.60;;;;;;5093052;28;20028;-79
2023/11/02 06:56:26;;;;;;;6.18;3.60;;;333.70;2329.60;;;;;;5073251;28;20040;-78
2023/11/02 06:58:53;;;;;;;12.90;4.00;;;333.70;2329.60;;;;;;5082837;28;20028;-78
2023/11/02 07:01:19;;;;;;;7.82;3.17;;;333.70;2329.60;;;;;;5082788;28;20112;-77
2023/11/02 07:03:45;;;;;;;6.28;3.20;;;333.70;2329.60;;;;;;5084175;28;20115;-77
2023/11/02 07:06:11;;;;;;;6.00;2.90;;;333.70;2329.60;;;;;;5067321;28;20025;-76
2023/11/02 07:08:37;;;;;;;7.50;3.03;;;358.40;2329.60;;;;;;5065139;28;20111;-79
2023/11/02 07:11:03;;;;;;;6.88;2.78;;;358.50;2329.60;;;;;;5071362;28;20060;-76
2023/11/02 07:13:29;;;;;;;8.95;2.92;;;358.60;2329.60;;;;;;5070259;28;20123;-77
2023/11/02 07:15:56;;;;;;;5.68;3.00;;;358.80;2329.60;;;;;;5065302;28;20066;-75
2023/11/02 07:18:21;;;;;;;5.70;2.88;;;358.80;2329.60;;;;;;5086443;28;20031;-77
2023/11/02 07:20:47;;;;;;;7.78;3.72;;;359.00;2329.60;;;;;;5063324;28;20016;-75
2023/11/02 07:23:13;;;;;;;8.00;3.22;;;359.10;2329.60;;;;;;5083618;28;20115;-75
2023/11/02 07:25:39;;;;;;;6.90;3.53;;;359.20;2329.60;;;;;;5088411;28;20463;-76
2023/11/02 07:28:04;;;;;;;6.35;3.58;;;384.00;2329.60;;;;;;5086157;28;20135;-77
2023/11/02 07:30:30;;;;;;;6.47;3.10;;;384.10;2329.60;;;;;;5082051;28;20020;-77
2023/11/02 07:32:56;;;;;;;8.77;3.15;;;384.30;2329.60;;;;;;5087343;28;20040;-75
2023/11/02 07:35:22;;;;;;;6.80;3.30;;;384.50;2329.60;;;;;;5086312;28;20028;-77
2023/11/02 07:37:49;;;;;;;5.22;2.80;;;384.60;2329.60;;;;;;5085840;28;20028;-78
2023/11/02 07:40:15;;;;;;;6.15;2.90;;;384.70;2329.60;;;;;;5081128;28;20417;-77
2023/11/02 07:42:41;;;;;;;5.53;2.15;;;384.70;2329.60;;;;;;5086297;28;20036;-77
2023/11/02 07:45:08;;;;;;;4.70;2.05;;;384.90;2329.60;;;;;;5081962;28;20505;-76
2023/11/02 07:47:34;;;;;;;5.28;2.30;;;384.90;2329.60;;;;;;5082868;28;20486;-78
2023/11/02 07:50:00;;;;;;;6.80;2.47;;;384.80;2329.60;;;;;;5087433;28;20030;-79
2023/11/02 07:52:26;;;;;;;6.72;1.90;;;384.70;2329.60;;;;;;5086738;28;20032;-77
2023/11/02 07:54:53;;;;;;;3.63;1.92;;;409.70;2355.20;;;;;;5083235;28;20023;-76
2023/11/02 07:57:19;;;;;;;5.80;2.20;;;384.80;2329.60;;;;;;5068275;28;20020;-76
2023/11/02 07:59:45;;;;;;;5.85;2.17;;;384.90;2329.60;;;;;;5085975;28;20021;-77
2023/11/02 08:02:11;;;;;;;5.63;1.98;;;384.90;2329.60;;;;;;5071221;28;20481;-77
2023/11/02 08:04:37;;;;;;;4.68;2.15;;;384.90;2329.60;;;;;;5060270;28;20037;-75
2023/11/02 08:07:03;;;;;;;2.85;1.70;;;409.60;2355.20;;;;;;5078773;28;20486;-74
2023/11/02 08:09:29;;;;;;;5.47;2.70;;;409.70;2355.20;;;;;;5081240;28;20024;-77
2023/11/02 08:11:56;;;;;;;5.15;2.65;;;409.80;2355.20;;;;;;5082861;28;20028;-76
2023/11/02 08:14:22;;;;;;;9.02;2.10;;;409.90;2355.20;;;;;;5075867;28;20041;-79
2023/11/02 08:16:48;;;;;;;3.50;1.75;;;410.00;2355.20;;;;;;5090483;28;20233;-79
2023/11/02 08:19:14;;;;;;;5.05;2.15;;;410.10;2355.20;;;;;;5086427;28;20047;-81
2023/11/02 08:21:42;;;;;;;6.82;2.60;;;410.20;2355.20;;;;;;5090559;28;20059;-80
2023/11/02 08:24:08;;;;;;;6.30;2.75;;;410.30;2355.20;;;;;;5082635;28;20020;-79
2023/11/02 08:26:34;;;;;;;6.93;2.88;;;410.30;2355.20;;;;;;5083093;28;20555;-80
2023/11/02 08:29:00;;;;;;;7.05;3.42;;;410.30;2355.20;;;;;;5069326;28;20024;-80
2023/11/02 08:31:28;;;;;;;8.90;3.75;;;410.40;2355.20;;;;;;5086298;28;20509;-76
2023/11/02 08:33:54;;;;;;;4.80;2.83;;;410.40;2355.20;;;;;;5072433;28;20039;-77
2023/11/02 08:36:20;;;;;;;6.57;3.33;;;410.50;2355.20;;;;;;5058805;28;20078;-76
2023/11/02 08:38:47;;;;;;;7.63;3.53;;;435.80;2355.20;;;;;;5067342;28;20032;-77
2023/11/02 08:41:26;;;;;;;12.05;3.35;;;435.20;2355.20;;;;;;5063204;28;20120;-83
2023/11/02 08:43:53;;;;;;;6.70;3.58;;;435.20;2355.20;;;;;;5065342;28;20080;-81
2023/11/02 08:46:22;;;;;;;8.60;3.50;;;435.30;2355.20;;;;;;5069551;28;20027;-79
2023/11/02 08:48:49;;;;;;;8.32;2.67;;;435.30;2355.20;;;;;;5076816;28;20028;-78
2023/11/02 08:51:16;;;;;;;7.22;3.72;;;435.30;2355.20;;;;;;5067239;28;20030;-79
2023/11/02 08:53:42;;;;;;;7.40;3.95;;;435.50;2355.20;;;;;;5075982;28;20045;-75
2023/11/02 08:56:09;;;;;;;9.88;3.00;;;435.70;2355.20;;;;;;5081171;28;20122;-78
2023/11/02 08:58:41;;;;;;;5.85;3.05;;;435.80;2355.20;;;;;;5084433;28;20054;-78
2023/11/02 09:01:08;;;;;;;11.90;3.97;;;435.90;2355.20;;;;;;5082014;28;20020;-77
2023/11/02 09:03:34;;;;;;;7.60;3.22;;;435.90;2355.20;;;;;;5080443;28;20035;-78
2023/11/02 09:06:00;;;;;;;4.60;3.00;;;436.00;2355.20;;;;;;5084465;28;20142;-80
2023/11/02 09:08:26;;;;;;;5.43;3.08;;;460.80;2380.80;;;;;;5062451;28;20116;-75
2023/11/02 09:10:51;;;;;;;5.15;2.75;;;460.80;2380.80;;;;;;5070243;28;20571;-78
2023/11/02 09:13:17;;;;;;;8.00;2.92;;;460.90;2380.80;;;;;;5088131;28;20036;-78
2023/11/02 09:15:43;;;;;;;5.20;2.70;;;461.10;2380.80;;;;;;5070272;28;20081;-78
2023/11/02 09:18:09;;;;;;;6.63;2.63;;;461.10;2380.80;;;;;;5082094;28;20031;-78
2023/11/02 09:20:34;;;;;;;10.25;2.83;;;461.20;2380.80;;;;;;5072439;28;20028;-76
2023/11/02 09:23:00;;;;;;;4.90;2.90;;;461.40;2380.80;;;;;;5066431;28;20031;-77
2023/11/02 09:25:26;;;;;;;6.93;3.08;;;461.70;2380.80;;;;;;5086452;28;20682;-77
2023/11/02 09:27:52;;;;;;;4.28;2.47;;;486.50;2380.80;;;;;;5058208;28;20036;-77
2023/11/02 09:30:18;;;;;;;5.03;2.42;;;486.60;2380.80;;;;;;5070347;28;20039;-79
2023/11/02 09:32:44;;;;;;;8.75;3.08;;;486.90;2380.80;;;;;;5090824;28;20020;-78
2023/11/02 09:35:10;;;;;;;6.65;3.03;;;486.80;2380.80;;;;;;5083462;28;20074;-77
2023/11/02 09:37:36;;;;;;;6.82;2.75;;;486.80;2380.80;;;;;;5079512;28;20516;-77
2023/11/02 09:40:03;;;;;;;9.32;2.95;;;487.10;2355.20;;;;;;5086437;28;20034;-78
2023/11/02 09:42:30;;;;;;;6.10;2.85;;;512.00;2329.60;;;;;;5084902;28;20040;-79
2023/11/02 09:44:56;;;;;;;7.57;3.20;;;512.20;2278.40;;;;;;5079081;28;20035;-81
2023/11/02 09:47:23;;;;;;;8.07;3.03;;;512.20;2278.40;;;;;;5082548;28;20483;-76
2023/11/02 09:49:49;;;;;;;5.90;2.50;;;512.50;2252.80;;;;;;5087128;28;20032;-77
2023/11/02 09:52:15;;;;;;;10.02;3.38;;;512.60;2227.20;;;;;;5084405;28;20035;-77
2023/11/02 09:54:41;;;;;;;10.02;3.03;;;512.90;2201.60;;;;;;5080344;28;20087;-77
2023/11/02 09:57:07;;;;;;;8.30;3.40;;;537.60;2227.20;;;;;;5081728;28;20048;-78
2023/11/02 09:59:33;;;;;;;9.73;4.03;;;537.80;2176.00;;;;;;5085950;28;20028;-79
2023/11/02 10:02:01;;;;;;;4.25;2.80;;;537.80;2176.00;;;;;;5078666;28;20020;-75
2023/11/02 10:04:27;;;;;;;10.35;3.30;;;537.70;2176.00;;;;;;5081945;28;20028;-79
2023/11/02 10:06:52;;;;;;;10.27;3.08;;;537.60;2176.00;;;;;;5084811;28;20077;-77
2023/11/02 10:09:19;;;;;;;5.93;2.22;;;538.20;2176.00;;;;;;5098807;28;20033;-77
2023/11/02 10:11:46;;;;;;;5.00;2.60;;;538.50;2099.20;;;;;;5078207;28;20071;-76
2023/11/02 10:14:11;;;;;;;7.78;2.90;;;563.30;2073.60;;;;;;5081219;28;20036;-74
2023/11/02 10:16:37;;;;;;;6.78;3.00;;;563.30;2048.00;;;;;;5080370;28;20089;-78
2023/11/02 10:19:03;;;;;;;9.52;2.90;;;563.40;2048.00;;;;;;5085395;28;20439;-77
2023/11/02 10:21:28;;;;;;;4.85;2.92;;;563.70;2048.00;;;;;;5082455;28;20031;-75
2023/11/02 10:23:55;;;;;;;5.13;3.25;;;563.60;1996.80;;;;;;5073640;28;20024;-74
2023/11/02 10:26:24;;;;;;;7.93;3.67;;;563.50;2022.40;;;;;;5081988;28;20390;-76
2023/11/02 10:28:53;;;;;;;7.28;2.90;;;564.10;1996.80;;;;;;5085501;28;20036;-77
2023/11/02 10:31:25;;;;;;;7.43;3.92;;;564.10;1971.20;;;;;;5077233;28;20052;-79
2023/11/02 10:33:51;;;;;;;5.10;3.15;;;564.10;1971.20;;;;;;5088079;28;20048;-77
2023/11/02 10:36:18;;;;;;;5.60;2.83;;;588.90;1920.00;;;;;;5087468;28;20204;-77
2023/11/02 10:38:44;;;;;;;6.63;3.88;;;589.00;1945.60;;;;;;5084014;28;20052;-77
2023/11/02 10:41:15;;;;;;;8.82;3.15;;;564.10;1894.40;;;;;;5085533;28;20089;-78
2023/11/02 10:43:45;;;;;;;6.78;3.30;;;589.00;1868.80;;;;;;5079713;28;20052;-76
2023/11/02 10:46:11;;;;;;;6.35;3.22;;;588.90;1920.00;;;;;;5088788;28;20080;-75
2023/11/02 10:48:41;;;;;;;5.18;3.13;;;588.90;1894.40;;;;;;5081671;28;20393;-76
2023/11/02 10:51:16;;;;;;;15.13;3.60;;;564.00;1945.60;;;;;;5085835;28;20024;-76
2023/11/02 10:53:53;;;;;;;8.70;3.60;;;564.00;1945.60;;;;;;5091034;28;20028;-73
2023/11/02 10:56:21;;;;;;;6.15;2.95;;;564.10;1894.40;;;;;;5087932;28;20101;-74
2023/11/02 10:58:50;;;;;;;7.53;3.10;;;589.00;1843.20;;;;;;5083613;28;20060;-74
2023/11/02 11:01:18;;;;;;;8.00;3.35;;;589.20;1843.20;;;;;;5067473;28;20047;-76
2023/11/02 11:03:46;;;;;;;8.50;4.13;;;589.00;1843.20;;;;;;5089302;28;20085;-77
2023/11/02 11:06:12;;;;;;;6.80;3.28;;;589.00;1843.20;;;;;;5063080;28;20363;-76
2023/11/02 11:08:39;;;;;;;5.22;3.47;;;588.90;1843.20;;;;;;5085461;28;20118;-76
2023/11/02 11:11:06;;;;;;;5.93;3.38;;;589.20;1843.20;;;;;;5076995;28;20111;-75
2023/11/02 11:13:32;;;;;;;10.80;3.83;;;589.20;1843.20;;;;;;5069467;28;20071;-76
2023/11/02 11:15:59;;;;;;;4.53;2.78;;;589.30;1843.20;;;;;;5071212;28;20481;-75
2023/11/02 11:18:27;;;;;;;7.10;3.28;;;589.30;1817.60;;;;;;5078837;28;20035;-76
2023/11/02 11:20:52;;;;;;;4.68;2.88;;;589.10;1792.00;;;;;;5064445;28;20551;-75
2023/11/02 11:23:19;;;;;;;9.45;3.60;;;589.00;1792.00;;;;;;5084451;28;20024;-76
2023/11/02 11:25:58;;;;;;;5.53;3.20;;;589.30;1792.00;;;;;;5089439;28;20016;-76
2023/11/02 11:28:32;;;;;;;5.57;2.97;;;589.10;1792.00;;;;;;5069096;28;20035;-77
2023/11/02 11:31:10;;;;;;;6.38;3.25;;;588.90;1792.00;;;;;;5079724;28;20036;-75
2023/11/02 11:33:46;;;;;;;10.23;3.60;;;589.20;1817.60;;;;;;5086632;28;20477;-75
2023/11/02 11:36:38;;;;;;;5.05;3.00;;;589.30;1792.00;;;;;;5074534;28;20024;-75
2023/11/02 11:39:34;;;;;;;7.65;3.60;;;589.30;1766.40;;;;;;5079957;28;20043;-76
2023/11/02 11:42:00;;;;;;;5.45;3.13;;;589.30;1766.40;;;;;;5064008;28;20394;-77
2023/11/02 11:44:26;;;;;;;7.40;3.58;;;589.20;1766.40;;;;;;5062287;28;20081;-78
2023/11/02 11:46:56;;;;;;;5.93;3.58;;;589.20;1740.80;;;;;;5075917;28;20031;-77
2023/11/02 11:49:44;;;;;;;6.15;3.30;;;589.00;1740.80;;;;;;5064555;28;20047;-76
2023/11/02 11:52:21;;;;;;;6.78;3.80;;;589.20;1740.80;;;;;;5066753;28;20028;-76
2023/11/02 11:54:47;;;;;;;11.55;3.30;;;589.40;1766.40;;;;;;5090603;28;20119;-75
2023/11/02 11:57:49;;;;;;;8.10;3.30;;;589.70;1715.20;;;;;;5083165;28;20056;-75
2023/11/02 12:00:15;;;;;;;5.10;2.67;;;614.40;1612.80;;;;;;5087071;28;20508;-77
2023/11/02 12:02:43;;;;;;;6.05;2.97;;;589.60;1638.40;;;;;;5082457;28;20028;-75
2023/11/02 12:05:10;;;;;;;5.68;2.63;;;589.60;1638.40;;;;;;5079514;28;20378;-75
2023/11/02 12:07:38;;;;;;;9.65;3.03;;;589.20;1638.40;;;;;;5069719;28;20405;-78
2023/11/02 12:10:05;;;;;;;4.53;2.55;;;589.20;1664.00;;;;;;5082171;28;20024;-75
2023/11/02 12:12:31;;;;;;;6.00;2.80;;;589.30;1689.60;;;;;;5070033;28;20485;-74
2023/11/02 12:15:18;;;;;;;9.45;3.47;;;589.10;1664.00;;;;;;5083020;28;20047;-77
2023/11/02 12:17:51;;;;;;;5.45;2.72;;;589.10;1715.20;;;;;;5080204;28;20017;-76
2023/11/02 12:20:37;;;;;;;5.93;2.70;;;589.20;1689.60;;;;;;5067236;28;20032;-76
2023/11/02 12:23:02;;;;;;;5.65;3.28;;;589.30;1638.40;;;;;;5078796;28;20032;-77
2023/11/02 12:25:28;;;;;;;7.38;3.85;;;589.30;1689.60;;;;;;5084145;28;20024;-75
2023/11/02 12:28:00;;;;;;;8.05;3.13;;;589.10;1689.60;;;;;;5080010;28;20576;-78
2023/11/02 12:30:26;;;;;;;8.57;3.03;;;588.90;1664.00;;;;;;5065033;28;20432;-74